Time;durP1;ratioP1;P1;durP2;ratioP2;P2;SDS_P1;SDS_P2;PMS_P1;PMS_P2;Temp;Humidity;BMP_temperature;BMP_pressure;BME280_temperature;BME280_humidity;BME280_pressure;Samples;Min_cycle;Max_cycle;Signal;HPM_P1;HPM_P2
2023/07/11 00:00:58;;;;;;;7.33;6.73;;;17.30;98.70;;;;;;5031213;28;20514;-51
2023/07/11 00:03:24;;;;;;;7.40;6.80;;;17.30;99.30;;;;;;5036720;28;20487;-51
2023/07/11 00:05:59;;;;;;;6.97;6.47;;;17.30;99.90;;;;;;5031569;28;20994;-51
2023/07/11 00:08:25;;;;;;;7.77;6.83;;;17.20;99.90;;;;;;5029939;28;20585;-51
2023/07/11 00:10:52;;;;;;;7.13;6.63;;;17.10;99.90;;;;;;5030930;28;20545;-51
2023/07/11 00:13:19;;;;;;;7.20;6.60;;;17.20;99.90;;;;;;5029000;28;20550;-52
2023/07/11 00:15:55;;;;;;;6.90;6.30;;;17.20;94.70;;;;;;5029284;28;22526;-51
2023/07/11 00:18:22;;;;;;;7.13;6.40;;;17.10;97.80;;;;;;5029207;28;20540;-51
2023/07/11 00:20:49;;;;;;;8.07;7.17;;;17.20;99.30;;;;;;5027855;28;20550;-52
2023/07/11 00:23:15;;;;;;;6.73;6.07;;;17.10;99.80;;;;;;5029837;28;21071;-51
2023/07/11 00:25:42;;;;;;;10.27;6.40;;;17.00;99.70;;;;;;5029443;28;20586;-51
2023/07/11 00:28:08;;;;;;;6.97;6.47;;;17.00;95.60;;;;;;5025929;28;20558;-52
2023/07/11 00:30:36;;;;;;;13.50;7.20;;;17.00;96.70;;;;;;5029421;28;20897;-51
2023/07/11 00:33:03;;;;;;;7.37;6.80;;;17.00;94.90;;;;;;5031327;28;20532;-51
2023/07/11 00:35:29;;;;;;;10.40;7.00;;;16.90;99.90;;;;;;5021845;28;20541;-51
2023/07/11 00:37:56;;;;;;;8.20;7.47;;;16.90;97.80;;;;;;5031399;28;21040;-52
2023/07/11 00:40:22;;;;;;;7.20;6.60;;;16.80;95.90;;;;;;5031409;28;20482;-52
2023/07/11 00:42:51;;;;;;;8.60;7.23;;;16.80;98.30;;;;;;5029743;28;20553;-51
2023/07/11 00:45:54;;;;;;;6.83;6.23;;;16.80;98.10;;;;;;5031127;28;20482;-52
2023/07/11 00:48:23;;;;;;;6.30;5.80;;;16.70;97.70;;;;;;5024360;28;20533;-52
2023/07/11 00:50:50;;;;;;;7.47;6.63;;;16.60;96.30;;;;;;5029476;28;20550;-52
2023/07/11 00:53:18;;;;;;;7.17;6.47;;;16.60;94.70;;;;;;5031342;28;21038;-52
2023/07/11 00:55:45;;;;;;;8.77;6.50;;;16.50;95.40;;;;;;5031175;28;20516;-50
2023/07/11 00:58:13;;;;;;;7.13;6.53;;;16.50;89.70;;;;;;5032173;28;20553;-51
2023/07/11 01:00:39;;;;;;;8.03;6.27;;;16.60;89.80;;;;;;5029256;28;20574;-51
2023/07/11 01:03:06;;;;;;;6.43;5.93;;;16.60;88.80;;;;;;5027618;28;20534;-51
2023/07/11 01:05:34;;;;;;;6.50;6.00;;;16.60;89.80;;;;;;5033802;28;20494;-51
2023/07/11 01:08:01;;;;;;;6.77;6.00;;;16.60;94.50;;;;;;5034561;28;20550;-50
2023/07/11 01:10:27;;;;;;;7.10;6.53;;;16.60;95.30;;;;;;5035820;28;20536;-50
2023/07/11 01:12:59;;;;;;;6.53;6.03;;;16.60;95.70;;;;;;5028908;28;20576;-56
2023/07/11 01:15:26;;;;;;;6.50;6.00;;;16.50;96.60;;;;;;5032520;28;20899;-51
2023/07/11 01:17:52;;;;;;;7.70;6.43;;;16.50;99.90;;;;;;5032536;28;20490;-52
2023/07/11 01:20:22;;;;;;;7.60;6.37;;;16.50;97.70;;;;;;5029273;28;21006;-57
2023/07/11 01:22:52;;;;;;;6.00;5.50;;;16.40;98.90;;;;;;5029044;28;20909;-51
2023/07/11 01:25:19;;;;;;;8.63;6.43;;;16.40;99.60;;;;;;5029415;28;20570;-51
2023/07/11 01:27:47;;;;;;;6.83;6.23;;;16.30;99.90;;;;;;5034571;28;20557;-52
2023/07/11 01:30:16;;;;;;;7.47;6.67;;;16.20;99.90;;;;;;5028485;28;20550;-51
2023/07/11 01:32:42;;;;;;;6.00;5.50;;;16.20;98.10;;;;;;5031098;28;20514;-52
2023/07/11 01:35:09;;;;;;;6.40;5.80;;;16.30;99.90;;;;;;5030103;28;20559;-53
2023/07/11 01:37:36;;;;;;;9.57;6.87;;;16.20;99.90;;;;;;5019086;28;20585;-57
2023/07/11 01:40:05;;;;;;;6.17;5.67;;;16.10;99.20;;;;;;5037625;28;20487;-52
2023/07/11 01:42:32;;;;;;;7.03;6.37;;;16.10;99.70;;;;;;5028733;28;20504;-53
2023/07/11 01:44:59;;;;;;;6.30;5.70;;;16.10;96.60;;;;;;5031522;28;20669;-53
2023/07/11 01:47:25;;;;;;;7.40;5.93;;;16.10;98.10;;;;;;5031518;28;20474;-53
2023/07/11 01:49:52;;;;;;;6.90;6.30;;;16.10;99.50;;;;;;5030227;28;20537;-57
2023/07/11 01:52:20;;;;;;;6.27;5.77;;;16.00;99.90;;;;;;5022021;28;20518;-51
2023/07/11 01:54:47;;;;;;;7.27;6.57;;;16.00;99.90;;;;;;5016587;28;20487;-52
2023/07/11 01:57:14;;;;;;;6.73;6.03;;;16.00;99.80;;;;;;5029900;28;20525;-51
2023/07/11 01:59:41;;;;;;;6.10;5.60;;;16.00;99.00;;;;;;5028044;28;20540;-51
2023/07/11 02:02:09;;;;;;;6.70;6.10;;;16.00;94.00;;;;;;5028572;28;20506;-52
2023/07/11 02:04:37;;;;;;;6.60;6.00;;;15.90;96.50;;;;;;5029206;28;20564;-51
2023/07/11 02:07:05;;;;;;;7.80;7.00;;;15.80;99.40;;;;;;5027786;28;20541;-51
2023/07/11 02:09:32;;;;;;;7.93;6.00;;;15.90;98.50;;;;;;5029487;28;20509;-51
2023/07/11 02:11:59;;;;;;;6.23;5.67;;;15.90;96.50;;;;;;5032600;28;20482;-51
2023/07/11 02:14:27;;;;;;;5.60;5.20;;;15.90;96.30;;;;;;5030818;28;20505;-51
2023/07/11 02:16:54;;;;;;;7.37;5.90;;;15.80;99.90;;;;;;5033081;28;20505;-51
2023/07/11 02:19:22;;;;;;;6.10;5.67;;;15.80;99.90;;;;;;5032181;28;20454;-52
2023/07/11 02:21:48;;;;;;;6.60;6.03;;;15.70;99.90;;;;;;5073809;22;20580;-55
2023/07/11 02:24:17;;;;;;;5.90;5.40;;;15.70;96.80;;;;;;5071015;28;20591;-55
2023/07/11 02:26:44;;;;;;;5.97;5.57;;;15.60;99.90;;;;;;5071974;28;20737;-55
2023/07/11 02:29:11;;;;;;;9.13;6.37;;;15.60;98.80;;;;;;5071416;28;20476;-55
2023/07/11 02:31:39;;;;;;;5.67;5.17;;;15.70;99.90;;;;;;5073612;28;20507;-56
2023/07/11 02:34:05;;;;;;;5.83;5.33;;;15.60;99.90;;;;;;5073576;28;20472;-54
2023/07/11 02:36:32;;;;;;;5.40;5.00;;;15.60;95.90;;;;;;5045421;28;20489;-54
2023/07/11 02:38:59;;;;;;;6.27;5.67;;;15.60;97.20;;;;;;5057027;28;20245;-54
2023/07/11 02:41:26;;;;;;;6.07;5.50;;;15.50;98.80;;;;;;5043371;28;20510;-54
2023/07/11 02:43:53;;;;;;;6.17;5.67;;;15.40;98.20;;;;;;5044085;28;20457;-54
2023/07/11 02:46:20;;;;;;;6.17;5.07;;;15.50;92.40;;;;;;5042469;28;20489;-54
2023/07/11 02:48:47;;;;;;;5.73;5.23;;;15.50;97.10;;;;;;5036079;28;20983;-54
2023/07/11 02:51:14;;;;;;;6.37;5.87;;;15.50;99.90;;;;;;5043366;28;20529;-56
2023/07/11 02:53:41;;;;;;;6.17;5.70;;;15.60;97.10;;;;;;5044505;28;20489;-55
2023/07/11 02:56:07;;;;;;;5.67;5.27;;;15.50;99.90;;;;;;5045466;28;20505;-54
2023/07/11 02:58:34;;;;;;;6.60;6.00;;;15.50;99.90;;;;;;5045576;28;20504;-55
2023/07/11 03:01:02;;;;;;;5.80;5.30;;;15.40;99.90;;;;;;5041098;28;20486;-54
2023/07/11 03:03:29;;;;;;;7.07;6.20;;;15.40;99.90;;;;;;5039327;28;20515;-54
2023/07/11 03:05:57;;;;;;;9.43;5.80;;;15.40;99.90;;;;;;5037946;28;20570;-54
2023/07/11 03:08:24;;;;;;;6.27;5.77;;;15.30;99.90;;;;;;5052324;28;20489;-55
2023/07/11 03:10:51;;;;;;;6.40;5.10;;;15.40;99.90;;;;;;5048974;28;20859;-54
2023/07/11 03:13:18;;;;;;;6.50;5.90;;;15.40;99.90;;;;;;5053217;28;20486;-54
2023/07/11 03:15:45;;;;;;;6.43;5.70;;;15.30;99.90;;;;;;5042185;28;20985;-53
2023/07/11 03:18:13;;;;;;;10.73;5.50;;;15.30;99.90;;;;;;5051765;28;20489;-55
2023/07/11 03:20:40;;;;;;;6.07;5.60;;;15.20;99.60;;;;;;5047382;28;20481;-54
2023/07/11 03:23:09;;;;;;;6.20;5.70;;;15.20;99.90;;;;;;5038663;28;20554;-55
2023/07/11 03:25:37;;;;;;;7.30;6.70;;;15.20;99.90;;;;;;5035181;28;20576;-55
2023/07/11 03:28:04;;;;;;;6.27;5.67;;;15.20;98.50;;;;;;5042553;28;20491;-54
2023/07/11 03:30:31;;;;;;;7.10;6.50;;;15.20;99.90;;;;;;5051798;28;20504;-54
2023/07/11 03:32:58;;;;;;;5.87;5.47;;;15.10;96.80;;;;;;5047094;28;20478;-54
2023/07/11 03:35:24;;;;;;;6.80;6.13;;;15.20;93.40;;;;;;5041728;28;20490;-59
2023/07/11 03:37:51;;;;;;;8.37;5.60;;;15.20;94.60;;;;;;5053164;28;20875;-55
2023/07/11 03:40:19;;;;;;;5.90;5.30;;;15.20;99.30;;;;;;5045499;28;20529;-55
2023/07/11 03:42:45;;;;;;;8.40;5.87;;;15.20;99.90;;;;;;5041704;28;20510;-55
2023/07/11 03:45:12;;;;;;;6.70;6.13;;;15.30;97.10;;;;;;5053319;28;20524;-55
2023/07/11 03:47:38;;;;;;;5.97;5.40;;;15.20;98.20;;;;;;5052728;28;20490;-54
2023/07/11 03:50:06;;;;;;;6.00;5.50;;;15.40;98.40;;;;;;5046726;28;21007;-57
2023/07/11 03:52:33;;;;;;;7.00;5.90;;;15.40;99.90;;;;;;5042183;28;21094;-54
2023/07/11 03:54:59;;;;;;;5.70;5.20;;;15.40;99.90;;;;;;5046016;28;20461;-54
2023/07/11 03:57:27;;;;;;;5.83;5.30;;;15.50;98.30;;;;;;5047539;28;20498;-53
2023/07/11 03:59:54;;;;;;;6.30;5.83;;;15.50;97.90;;;;;;5043153;28;20541;-54
2023/07/11 04:02:20;;;;;;;6.73;6.13;;;15.60;96.80;;;;;;5051449;28;20510;-54
2023/07/11 04:04:47;;;;;;;7.30;6.13;;;15.60;94.30;;;;;;5049791;28;20509;-54
2023/07/11 04:07:13;;;;;;;6.87;6.10;;;15.70;94.00;;;;;;5048960;28;20492;-55
2023/07/11 04:09:41;;;;;;;6.40;5.80;;;15.60;98.10;;;;;;5041860;28;20465;-56
2023/07/11 04:12:09;;;;;;;6.50;6.00;;;15.70;95.60;;;;;;5043229;28;20478;-55
2023/07/11 04:14:37;;;;;;;7.63;6.17;;;15.70;95.20;;;;;;5049615;28;20490;-56
2023/07/11 04:17:04;;;;;;;9.87;5.90;;;15.70;91.70;;;;;;5038777;28;20998;-56
2023/07/11 04:19:30;;;;;;;7.20;6.50;;;15.70;94.10;;;;;;5041739;28;20906;-55
2023/07/11 04:21:57;;;;;;;6.27;5.77;;;15.70;93.60;;;;;;5036297;28;21042;-54
2023/07/11 04:24:23;;;;;;;5.80;5.30;;;15.80;93.00;;;;;;5037106;28;20541;-55
2023/07/11 04:26:50;;;;;;;6.67;5.90;;;15.80;91.30;;;;;;5043991;28;20500;-55
2023/07/11 04:29:16;;;;;;;7.70;5.80;;;15.90;89.00;;;;;;5044481;28;20494;-55
2023/07/11 04:31:44;;;;;;;5.57;5.17;;;16.00;88.50;;;;;;5044329;28;20584;-56
2023/07/11 04:34:11;;;;;;;5.40;5.00;;;16.00;87.00;;;;;;5037040;28;20974;-55
2023/07/11 04:36:37;;;;;;;6.97;6.37;;;16.10;85.60;;;;;;5046759;28;20486;-53
2023/07/11 04:39:04;;;;;;;5.30;4.90;;;16.20;84.10;;;;;;5044684;28;20904;-55
2023/07/11 04:41:30;;;;;;;7.83;6.90;;;16.20;82.40;;;;;;5042519;28;20509;-54
2023/07/11 04:43:57;;;;;;;6.53;5.90;;;16.30;80.70;;;;;;5041640;28;20988;-56
2023/07/11 04:46:23;;;;;;;7.20;5.30;;;16.40;79.50;;;;;;5036400;28;20569;-55
2023/07/11 04:48:51;;;;;;;8.47;6.10;;;16.40;77.50;;;;;;5039571;28;20555;-54
2023/07/11 04:51:18;;;;;;;5.63;5.13;;;16.50;76.00;;;;;;5050514;28;20561;-55
2023/07/11 04:53:45;;;;;;;6.60;6.10;;;16.60;75.20;;;;;;5042878;28;20481;-54
2023/07/11 04:56:11;;;;;;;6.30;5.70;;;16.70;74.40;;;;;;5048396;28;20458;-55
2023/07/11 04:58:39;;;;;;;6.23;5.63;;;16.80;74.00;;;;;;5056713;28;20549;-54
2023/07/11 05:01:07;;;;;;;8.33;5.77;;;16.80;72.70;;;;;;5045610;28;22010;-55
2023/07/11 05:03:34;;;;;;;9.23;5.57;;;16.90;71.90;;;;;;5037866;28;20497;-53
2023/07/11 05:06:03;;;;;;;6.27;5.00;;;17.00;71.10;;;;;;5041962;28;20932;-55
2023/07/11 05:08:30;;;;;;;5.17;4.70;;;17.10;70.70;;;;;;5043127;28;20462;-55
2023/07/11 05:11:01;;;;;;;5.70;4.83;;;17.20;70.10;;;;;;5045669;28;20535;-55
2023/07/11 05:13:28;;;;;;;5.30;4.80;;;17.20;70.00;;;;;;5043095;28;20455;-54
2023/07/11 05:15:59;;;;;;;5.80;4.23;;;17.30;70.30;;;;;;5050659;28;20888;-53
2023/07/11 05:18:25;;;;;;;9.73;4.40;;;17.40;73.10;;;;;;5043864;28;20995;-57
2023/07/11 05:20:53;;;;;;;4.47;3.47;;;17.50;76.10;;;;;;5047259;28;20489;-54
2023/07/11 05:23:22;;;;;;;4.43;4.03;;;17.60;78.40;;;;;;5046525;28;20488;-55
2023/07/11 05:25:48;;;;;;;4.00;3.63;;;17.70;83.90;;;;;;5047361;28;20923;-53
2023/07/11 05:28:16;;;;;;;4.50;3.77;;;17.80;89.20;;;;;;5052617;28;20473;-54
2023/07/11 05:30:42;;;;;;;3.57;3.20;;;17.80;99.90;;;;;;5045713;28;20457;-55
2023/07/11 05:33:09;;;;;;;5.90;4.47;;;18.00;99.90;;;;;;5045313;28;20489;-54
2023/07/11 05:35:37;;;;;;;4.33;3.73;;;18.20;99.90;;;;;;5049724;28;20542;-54
2023/07/11 05:38:04;;;;;;;5.23;3.80;;;18.30;99.90;;;;;;5048806;28;20457;-54
2023/07/11 05:40:32;;;;;;;5.40;3.60;;;18.40;99.90;;;;;;5041836;28;20537;-55
2023/07/11 05:42:59;;;;;;;7.90;3.90;;;18.50;99.90;;;;;;5036627;28;20478;-54
2023/07/11 05:45:25;;;;;;;11.70;4.90;;;18.60;99.90;;;;;;5046935;28;21012;-55
2023/07/11 05:47:52;;;;;;;4.40;3.70;;;18.70;99.90;;;;;;5050088;28;20510;-53
2023/07/11 05:50:21;;;;;;;4.97;3.97;;;18.80;99.90;;;;;;5039730;28;20506;-55
2023/07/11 05:52:48;;;;;;;6.67;3.70;;;18.90;99.90;;;;;;5050427;28;20482;-56
2023/07/11 05:55:14;;;;;;;4.73;2.80;;;19.00;99.90;;;;;;5058911;28;20871;-54
2023/07/11 05:57:42;;;;;;;4.77;2.93;;;19.10;99.90;;;;;;5045388;28;20863;-55
2023/07/11 06:00:10;;;;;;;2.53;2.33;;;19.30;92.70;;;;;;5038535;28;20486;-54
2023/07/11 06:02:37;;;;;;;6.93;3.57;;;19.30;22.40;;;;;;5041329;28;20482;-55
2023/07/11 06:05:04;;;;;;;8.30;3.30;;;19.40;38.40;;;;;;5048282;28;20570;-56
2023/07/11 06:07:31;;;;;;;5.30;3.10;;;19.50;37.40;;;;;;5049664;28;20497;-54
2023/07/11 06:09:58;;;;;;;7.93;3.53;;;19.60;40.70;;;;;;5045904;28;20462;-56
2023/07/11 06:12:25;;;;;;;6.10;3.97;;;19.70;44.70;;;;;;5044364;28;20908;-55
2023/07/11 06:14:52;;;;;;;6.67;3.37;;;19.80;50.30;;;;;;5038687;28;20490;-55
2023/07/11 06:17:19;;;;;;;8.90;4.03;;;19.90;48.40;;;;;;5032077;28;20556;-56
2023/07/11 06:19:46;;;;;;;7.70;4.00;;;20.00;47.10;;;;;;5037203;28;20493;-56
2023/07/11 06:22:13;;;;;;;6.77;3.77;;;20.10;40.70;;;;;;5043315;28;20486;-55
2023/07/11 06:24:39;;;;;;;8.40;4.37;;;20.20;44.80;;;;;;5045844;28;20461;-55
2023/07/11 06:27:06;;;;;;;14.00;4.93;;;20.20;48.10;;;;;;5046319;28;20516;-53
2023/07/11 06:29:33;;;;;;;32.30;4.77;;;20.30;43.10;;;;;;5048845;28;20493;-52
2023/07/11 06:32:01;;;;;;;15.50;4.37;;;20.40;39.40;;;;;;5047799;28;20521;-52
2023/07/11 06:34:27;;;;;;;10.33;4.20;;;20.50;32.40;;;;;;5034938;28;20469;-54
2023/07/11 06:36:54;;;;;;;10.80;4.77;;;20.60;46.60;;;;;;5048558;28;20450;-52
2023/07/11 06:39:20;;;;;;;6.30;4.20;;;20.60;57.40;;;;;;5042932;28;20548;-52
2023/07/11 06:41:47;;;;;;;7.27;3.80;;;20.70;59.10;;;;;;5046487;28;20477;-52
2023/07/11 06:44:13;;;;;;;10.00;3.73;;;20.70;65.10;;;;;;5049165;28;20872;-53
2023/07/11 06:46:40;;;;;;;6.17;3.33;;;20.70;64.90;;;;;;5048892;28;20513;-53
2023/07/11 06:49:08;;;;;;;5.87;4.00;;;20.80;63.60;;;;;;5048861;28;20457;-53
2023/07/11 06:51:34;;;;;;;5.10;3.30;;;20.90;89.50;;;;;;5044725;28;20539;-53
2023/07/11 06:54:01;;;;;;;6.93;3.90;;;21.00;84.70;;;;;;5057988;28;20981;-53
2023/07/11 06:56:28;;;;;;;7.37;3.50;;;21.00;81.60;;;;;;5059530;28;20504;-52
2023/07/11 06:58:55;;;;;;;5.37;3.53;;;21.10;93.10;;;;;;5052770;28;20507;-52
2023/07/11 07:01:22;;;;;;;3.67;3.20;;;21.20;97.60;;;;;;5040676;28;20537;-52
2023/07/11 07:03:49;;;;;;;8.80;4.03;;;21.30;99.90;;;;;;5045557;28;20475;-52
2023/07/11 07:06:19;;;;;;;5.90;3.33;;;21.30;99.90;;;;;;5048946;28;20847;-54
2023/07/11 07:08:46;;;;;;;7.70;3.93;;;21.40;99.90;;;;;;5043079;28;20544;-52
2023/07/11 07:11:12;;;;;;;3.67;2.63;;;21.50;99.90;;;;;;5044229;28;20578;-53
2023/07/11 07:13:39;;;;;;;2.90;2.70;;;21.40;99.90;;;;;;5043103;28;20555;-52
2023/07/11 07:16:05;;;;;;;5.70;2.73;;;21.50;99.90;;;;;;5048115;28;20454;-52
2023/07/11 07:18:34;;;;;;;4.50;2.40;;;21.60;99.90;;;;;;5045333;28;20534;-52
2023/07/11 07:21:02;;;;;;;2.70;2.50;;;21.70;99.90;;;;;;5042442;28;21005;-52
2023/07/11 07:23:31;;;;;;;2.50;2.37;;;21.70;99.90;;;;;;5037694;28;20541;-53
2023/07/11 07:25:59;;;;;;;6.90;2.90;;;21.80;99.90;;;;;;5043477;28;20514;-52
2023/07/11 07:28:27;;;;;;;7.50;3.40;;;21.90;99.90;;;;;;5043154;28;20906;-52
2023/07/11 07:30:55;;;;;;;3.90;3.00;;;21.90;99.90;;;;;;5041409;28;20484;-53
2023/07/11 07:33:24;;;;;;;2.50;2.30;;;22.00;99.90;;;;;;5041035;28;20546;-52
2023/07/11 07:35:54;;;;;;;8.47;3.30;;;22.10;99.90;;;;;;5046691;28;20457;-53
2023/07/11 07:38:21;;;;;;;2.63;2.43;;;22.10;99.90;;;;;;5036008;28;21035;-52
2023/07/11 07:40:53;;;;;;;6.60;2.87;;;22.10;40.20;;;;;;5038433;28;20549;-52
2023/07/11 07:43:19;;;;;;;5.60;3.03;;;22.20;42.70;;;;;;5042442;28;20542;-52
2023/07/11 07:45:48;;;;;;;8.37;2.70;;;22.30;63.50;;;;;;5052016;28;20572;-52
2023/07/11 07:48:14;;;;;;;4.10;3.10;;;22.30;53.80;;;;;;5050673;28;20549;-53
2023/07/11 07:50:41;;;;;;;6.43;2.80;;;22.30;44.20;;;;;;5058808;28;20536;-53
2023/07/11 07:53:07;;;;;;;5.70;2.53;;;22.40;40.20;;;;;;5051677;28;20565;-53
2023/07/11 07:55:35;;;;;;;3.67;2.40;;;22.50;64.00;;;;;;5051337;28;20553;-52
2023/07/11 07:58:03;;;;;;;5.87;2.80;;;22.50;70.80;;;;;;5048913;28;20965;-52
2023/07/11 08:00:30;;;;;;;15.60;2.87;;;22.60;65.90;;;;;;5043228;28;20552;-52
2023/07/11 08:02:57;;;;;;;10.70;2.93;;;22.60;59.60;;;;;;5046222;28;20565;-52
2023/07/11 08:05:24;;;;;;;4.40;2.50;;;22.70;66.80;;;;;;5049150;28;20561;-53
2023/07/11 08:07:50;;;;;;;5.50;2.67;;;22.80;86.70;;;;;;5035025;28;20554;-53
2023/07/11 08:10:17;;;;;;;3.03;2.13;;;22.80;87.10;;;;;;5050434;28;20504;-52
2023/07/11 08:12:45;;;;;;;4.63;2.47;;;22.90;87.80;;;;;;5044580;28;20577;-52
2023/07/11 08:15:13;;;;;;;2.80;2.33;;;23.00;98.60;;;;;;5052917;28;20812;-52
2023/07/11 08:17:42;;;;;;;4.17;2.13;;;23.10;99.90;;;;;;5039282;28;20559;-53
2023/07/11 08:20:09;;;;;;;9.20;2.97;;;23.20;99.90;;;;;;5056965;28;20441;-52
2023/07/11 08:22:35;;;;;;;2.10;1.90;;;23.20;99.90;;;;;;5047392;28;20559;-55
2023/07/11 08:25:02;;;;;;;7.93;2.33;;;23.30;99.90;;;;;;5051286;28;20480;-54
2023/07/11 08:27:29;;;;;;;2.50;1.63;;;23.30;99.90;;;;;;5048129;28;20555;-54
2023/07/11 08:29:55;;;;;;;4.43;2.73;;;23.40;99.90;;;;;;5048501;28;20537;-56
2023/07/11 08:32:23;;;;;;;5.87;2.23;;;23.50;99.90;;;;;;5045310;28;20564;-56
2023/07/11 08:34:49;;;;;;;5.03;2.73;;;23.50;99.90;;;;;;5049746;28;20585;-55
2023/07/11 08:37:16;;;;;;;6.07;2.43;;;23.60;99.90;;;;;;5041305;28;20537;-54
2023/07/11 08:39:42;;;;;;;2.97;2.17;;;23.80;99.90;;;;;;5047462;28;20580;-55
2023/07/11 08:42:17;;;;;;;3.87;2.50;;;23.80;99.90;;;;;;5044932;28;20574;-56
2023/07/11 08:44:48;;;;;;;4.10;2.10;;;24.00;99.90;;;;;;5055726;28;20496;-54
2023/07/11 08:47:19;;;;;;;4.17;2.50;;;24.10;99.90;;;;;;5045980;28;20512;-55
2023/07/11 08:49:52;;;;;;;4.10;1.90;;;24.30;99.90;;;;;;5049441;28;20533;-55
2023/07/11 08:52:21;;;;;;;4.70;1.73;;;24.40;99.90;;;;;;5053955;28;20492;-55
2023/07/11 08:54:52;;;;;;;3.57;1.73;;;24.50;99.90;;;;;;5055118;28;20499;-54
2023/07/11 08:57:22;;;;;;;1.57;1.47;;;24.50;99.90;;;;;;5057463;28;20485;-55
2023/07/11 08:59:56;;;;;;;3.90;1.90;;;24.60;99.90;;;;;;5043211;28;20520;-55
2023/07/11 09:02:31;;;;;;;3.77;1.87;;;24.60;99.90;;;;;;5047515;28;20513;-54
2023/07/11 09:05:03;;;;;;;2.53;1.70;;;24.60;99.90;;;;;;5040001;28;20553;-57
2023/07/11 09:07:36;;;;;;;2.97;1.63;;;24.70;99.90;;;;;;5043063;28;20482;-56
2023/07/11 09:10:12;;;;;;;2.87;2.17;;;24.70;99.90;;;;;;5044332;28;20546;-56
2023/07/11 09:12:45;;;;;;;10.63;2.50;;;24.80;99.90;;;;;;5038953;28;20573;-55
2023/07/11 09:15:18;;;;;;;3.30;1.70;;;25.00;99.90;;;;;;5043324;28;20532;-54
2023/07/11 09:17:57;;;;;;;2.93;1.40;;;25.30;99.90;;;;;;5041278;28;20487;-54
2023/07/11 09:20:36;;;;;;;5.50;1.37;;;25.60;99.90;;;;;;5049493;28;20545;-54
2023/07/11 09:23:18;;;;;;;5.37;1.87;;;25.70;99.90;;;;;;5043824;28;20588;-55
2023/07/11 09:25:47;;;;;;;3.83;1.80;;;25.90;99.90;;;;;;5033254;28;20501;-53
2023/07/11 09:28:19;;;;;;;4.63;2.20;;;25.90;99.90;;;;;;5043322;28;20462;-54
2023/07/11 09:30:51;;;;;;;4.90;2.53;;;26.00;99.90;;;;;;5044797;28;20459;-54
2023/07/11 09:33:22;;;;;;;2.90;2.13;;;25.80;99.90;;;;;;5041377;28;20538;-54
2023/07/11 09:35:52;;;;;;;3.83;1.70;;;25.80;99.90;;;;;;5034654;28;20527;-54
2023/07/11 09:38:24;;;;;;;4.10;1.60;;;25.80;99.90;;;;;;5045369;28;20592;-54
2023/07/11 09:40:56;;;;;;;3.70;2.10;;;25.90;99.90;;;;;;5037501;28;20952;-53
2023/07/11 09:43:22;;;;;;;4.07;2.27;;;26.10;99.90;;;;;;5049061;28;20462;-56
2023/07/11 09:45:49;;;;;;;5.87;2.10;;;26.30;99.90;;;;;;5055554;28;20548;-55
2023/07/11 09:48:18;;;;;;;4.70;2.37;;;26.20;99.90;;;;;;5044095;28;20587;-55
2023/07/11 09:50:53;;;;;;;3.67;2.10;;;26.30;99.90;;;;;;5041446;28;20597;-55
2023/07/11 09:53:21;;;;;;;3.03;1.80;;;26.40;99.90;;;;;;5043295;28;20490;-56
2023/07/11 09:55:54;;;;;;;2.97;1.50;;;26.30;99.90;;;;;;5044944;28;20537;-56
2023/07/11 09:58:21;;;;;;;5.30;2.00;;;26.70;99.90;;;;;;5034533;28;20462;-55
2023/07/11 10:00:48;;;;;;;3.40;1.83;;;26.70;99.90;;;;;;5039508;28;20994;-55
2023/07/11 10:03:17;;;;;;;5.63;1.87;;;26.70;99.90;;;;;;5036574;28;20541;-54
2023/07/11 10:05:45;;;;;;;3.33;1.80;;;26.70;99.90;;;;;;5032966;28;20473;-55
2023/07/11 10:08:18;;;;;;;6.73;1.70;;;26.60;99.90;;;;;;5035422;28;20510;-54
2023/07/11 10:10:47;;;;;;;18.80;3.13;;;26.90;99.90;;;;;;5047047;28;20492;-56
2023/07/11 10:13:16;;;;;;;5.67;1.90;;;27.30;99.90;;;;;;5044153;28;20485;-55
2023/07/11 10:15:42;;;;;;;4.23;1.60;;;27.40;99.90;;;;;;5039922;28;20466;-54
2023/07/11 10:18:17;;;;;;;6.47;1.70;;;27.60;99.90;;;;;;5039029;28;20497;-54
2023/07/11 10:20:45;;;;;;;2.10;1.53;;;27.60;99.90;;;;;;5049503;28;20462;-54
2023/07/11 10:23:13;;;;;;;15.97;1.53;;;27.50;99.90;;;;;;5036387;28;20454;-55
2023/07/11 10:25:44;;;;;;;2.83;1.67;;;27.80;99.90;;;;;;5036046;28;20557;-52
2023/07/11 10:28:22;;;;;;;5.20;1.83;;;27.90;99.90;;;;;;5038467;28;20874;-54
2023/07/11 10:30:50;;;;;;;2.50;1.40;;;28.20;99.90;;;;;;5041382;28;20872;-55
2023/07/11 10:33:20;;;;;;;2.83;1.50;;;28.90;99.90;;;;;;5055229;28;21010;-54
2023/07/11 10:35:50;;;;;;;3.03;1.60;;;29.30;99.90;;;;;;5046117;28;20548;-55
2023/07/11 10:38:21;;;;;;;5.43;2.20;;;29.50;99.90;;;;;;5054055;28;20947;-55
2023/07/11 10:40:52;;;;;;;2.10;1.63;;;30.00;99.90;;;;;;5052964;28;21047;-56
2023/07/11 10:43:25;;;;;;;6.57;1.37;;;29.50;99.90;;;;;;5050799;28;20493;-54
2023/07/11 10:45:57;;;;;;;4.00;1.80;;;28.90;99.90;;;;;;5043098;28;20462;-54
2023/07/11 10:48:33;;;;;;;2.53;1.80;;;29.40;99.90;;;;;;5041265;28;20512;-53
2023/07/11 10:51:01;;;;;;;5.50;1.53;;;29.90;99.90;;;;;;5046258;28;20477;-56
2023/07/11 10:53:34;;;;;;;5.93;1.60;;;29.50;99.90;;;;;;5058692;28;20453;-54
2023/07/11 10:56:07;;;;;;;4.53;1.90;;;29.80;99.90;;;;;;5044011;28;20902;-53
2023/07/11 10:58:34;;;;;;;2.00;1.40;;;29.90;99.90;;;;;;5048597;28;20457;-53
2023/07/11 11:01:13;;;;;;;2.67;1.70;;;29.80;99.90;;;;;;5058846;28;20556;-53
2023/07/11 11:03:42;;;;;;;3.20;1.80;;;29.50;99.90;;;;;;5039678;28;20464;-53
2023/07/11 11:06:29;;;;;;;5.97;2.00;;;29.40;99.90;;;;;;5040614;28;20553;-52
2023/07/11 11:09:04;;;;;;;6.07;2.27;;;29.10;99.90;;;;;;5048864;28;20537;-52
2023/07/11 11:11:41;;;;;;;4.67;1.90;;;28.40;99.90;;;;;;5047246;28;21045;-52
2023/07/11 11:14:15;;;;;;;3.47;1.70;;;28.40;99.90;;;;;;5041724;28;20459;-53
2023/07/11 11:16:53;;;;;;;3.37;1.80;;;28.30;99.90;;;;;;5040361;28;20453;-51
2023/07/11 11:19:31;;;;;;;2.80;1.53;;;28.20;99.90;;;;;;5043962;28;20985;-53
2023/07/11 11:22:05;;;;;;;4.70;1.90;;;28.30;99.90;;;;;;5051819;28;21035;-53
2023/07/11 11:24:46;;;;;;;3.00;1.70;;;28.60;99.90;;;;;;5044825;28;20482;-53
2023/07/11 11:27:26;;;;;;;7.17;1.87;;;28.60;99.90;;;;;;5053575;28;20564;-52
2023/07/11 11:30:01;;;;;;;2.03;1.83;;;28.80;99.90;;;;;;5037705;28;20553;-53
2023/07/11 11:32:34;;;;;;;1.70;1.60;;;29.00;99.90;;;;;;5050537;28;20483;-52
2023/07/11 11:35:18;;;;;;;3.77;1.93;;;29.10;99.90;;;;;;5047570;28;20972;-52
2023/07/11 11:38:04;;;;;;;3.00;2.00;;;29.00;99.90;;;;;;5045503;28;20569;-53
2023/07/11 11:40:34;;;;;;;2.43;1.47;;;29.20;99.90;;;;;;5040736;28;20484;-53
2023/07/11 11:43:06;;;;;;;2.77;1.40;;;29.40;99.90;;;;;;5041085;28;20940;-53
2023/07/11 11:45:34;;;;;;;8.50;2.40;;;29.20;99.90;;;;;;5038757;28;20571;-52
2023/07/11 11:48:03;;;;;;;9.17;1.70;;;29.10;99.90;;;;;;5038628;28;20635;-52
2023/07/11 11:50:33;;;;;;;4.17;2.23;;;29.10;99.90;;;;;;5045062;28;20472;-52
2023/07/11 11:53:22;;;;;;;3.37;1.30;;;29.00;99.90;;;;;;5045513;28;20565;-53
2023/07/11 11:55:56;;;;;;;1.73;1.57;;;29.00;99.90;;;;;;5045397;28;20493;-52
2023/07/11 11:58:27;;;;;;;4.60;1.93;;;28.90;99.90;;;;;;5037694;28;20461;-53
2023/07/11 12:00:55;;;;;;;4.17;2.07;;;29.20;99.90;;;;;;5038214;28;20486;-52
2023/07/11 12:03:28;;;;;;;4.20;1.57;;;29.30;99.90;;;;;;5041437;28;20454;-52
2023/07/11 12:05:56;;;;;;;1.70;1.50;;;29.30;99.90;;;;;;5036799;28;20450;-53
2023/07/11 12:08:33;;;;;;;2.00;1.90;;;29.10;99.90;;;;;;5037967;28;20531;-53
2023/07/11 12:11:20;;;;;;;4.50;2.10;;;29.40;99.90;;;;;;5034263;28;20972;-53
2023/07/11 12:14:18;;;;;;;8.03;1.93;;;29.40;99.90;;;;;;5036354;28;20581;-53
2023/07/11 12:16:48;;;;;;;4.10;1.77;;;29.40;99.90;;;;;;5038159;28;20982;-54
2023/07/11 12:19:29;;;;;;;3.00;1.70;;;29.60;99.90;;;;;;5048215;28;20547;-52
2023/07/11 12:22:03;;;;;;;1.77;1.63;;;29.60;99.90;;;;;;5046182;28;20492;-54
2023/07/11 12:24:44;;;;;;;1.83;1.70;;;29.50;99.90;;;;;;5038041;28;20462;-53
2023/07/11 12:27:40;;;;;;;3.67;2.00;;;29.50;99.90;;;;;;5039057;28;21087;-52
2023/07/11 12:30:40;;;;;;;1.40;1.23;;;29.50;99.90;;;;;;5030337;28;20884;-53
2023/07/11 12:33:33;;;;;;;3.97;1.53;;;29.70;99.90;;;;;;5043502;28;20537;-52
2023/07/11 12:36:29;;;;;;;2.87;1.60;;;29.70;99.90;;;;;;5042431;28;20450;-52
2023/07/11 12:39:02;;;;;;;5.43;1.40;;;29.70;99.90;;;;;;5049809;28;21037;-53
2023/07/11 12:41:39;;;;;;;2.03;1.50;;;29.60;99.90;;;;;;5043749;28;21063;-53
2023/07/11 12:44:12;;;;;;;2.90;1.70;;;30.30;99.90;;;;;;5061519;28;20552;-54
2023/07/11 12:46:43;;;;;;;2.00;1.77;;;30.90;99.90;;;;;;5036622;28;20507;-53
2023/07/11 12:49:15;;;;;;;3.17;2.10;;;30.80;99.90;;;;;;5044779;28;20519;-53
2023/07/11 12:51:41;;;;;;;5.10;2.00;;;30.80;99.90;;;;;;5042054;28;20561;-53
2023/07/11 12:54:15;;;;;;;2.27;2.07;;;30.50;99.90;;;;;;5040796;28;20546;-52
2023/07/11 12:56:44;;;;;;;2.17;1.87;;;30.30;99.90;;;;;;5033279;28;20564;-52